Time;durP1;ratioP1;P1;durP2;ratioP2;P2;SDS_P1;SDS_P2;PMS_P1;PMS_P2;Temp;Humidity;BMP_temperature;BMP_pressure;BME280_temperature;BME280_humidity;BME280_pressure;Samples;Min_cycle;Max_cycle;Signal;HPM_P1;HPM_P2
2023/05/03 00:00:09;;;;;;;6.53;3.60;;;;;;;11.49;46.53;101368.16;124896;1086;104372;-75
2023/05/03 00:02:58;;;;;;;8.50;4.03;;;;;;;11.41;46.35;101361.66;124804;1086;112904;-75
2023/05/03 00:05:26;;;;;;;8.33;3.90;;;;;;;11.38;46.59;101364.14;124959;1086;104299;-75
2023/05/03 00:07:55;;;;;;;9.93;4.20;;;;;;;11.34;46.55;101356.94;124979;1086;104701;-76
2023/05/03 00:10:24;;;;;;;11.20;4.20;;;;;;;11.30;46.80;101355.90;124910;1086;104283;-75
2023/05/03 00:12:52;;;;;;;8.37;4.00;;;;;;;11.28;46.83;101346.14;124915;1086;104357;-76
2023/05/03 00:15:22;;;;;;;8.97;4.03;;;;;;;11.25;46.95;101346.92;124750;1086;104257;-75
2023/05/03 00:17:51;;;;;;;10.77;4.63;;;;;;;11.23;47.14;101351.17;124881;1086;104274;-76
2023/05/03 00:20:21;;;;;;;9.73;3.90;;;;;;;11.22;46.89;101340.59;124916;1086;104405;-75
2023/05/03 00:22:49;;;;;;;9.50;4.30;;;;;;;11.17;47.06;101348.27;124918;1086;104366;-75
2023/05/03 00:25:18;;;;;;;10.87;4.40;;;;;;;11.16;47.34;101341.23;124905;1086;104225;-75
2023/05/03 00:27:46;;;;;;;9.95;4.45;;;;;;;11.13;47.31;101343.72;125088;1086;104348;-74
2023/05/03 00:30:17;;;;;;;8.83;4.20;;;;;;;11.08;47.51;101337.33;124786;1086;104325;-74
2023/05/03 00:32:45;;;;;;;9.10;3.80;;;;;;;11.06;48.01;101333.73;125137;1086;104337;-75
2023/05/03 00:35:14;;;;;;;13.23;4.33;;;;;;;11.00;48.28;101330.82;125051;1086;104315;-75
2023/05/03 00:37:42;;;;;;;9.03;4.30;;;;;;;10.96;47.79;101338.55;124989;1086;104289;-73
2023/05/03 00:40:12;;;;;;;10.27;4.17;;;;;;;10.94;47.94;101334.97;125049;1086;104337;-73
2023/05/03 00:42:40;;;;;;;10.50;4.10;;;;;;;10.90;47.81;101338.26;125192;1086;104242;-73
2023/05/03 00:45:10;;;;;;;10.23;4.23;;;;;;;10.88;48.24;101337.30;125279;1086;104421;-75
2023/05/03 00:47:39;;;;;;;10.15;4.30;;;;;;;10.85;47.99;101328.39;125204;1086;104423;-74
2023/05/03 00:50:10;;;;;;;6.10;3.83;;;;;;;10.82;48.42;101330.86;125235;1086;104424;-73
2023/05/03 00:52:39;;;;;;;11.37;4.57;;;;;;;10.80;48.37;101325.54;124807;1086;104293;-74
2023/05/03 00:55:10;;;;;;;12.27;4.47;;;;;;;10.79;48.76;101323.73;124965;1086;104254;-75
2023/05/03 00:57:39;;;;;;;11.80;4.40;;;;;;;10.76;48.74;101320.95;124871;1086;104360;-76
2023/05/03 01:00:12;;;;;;;9.17;4.50;;;;;;;10.74;48.64;101320.88;124865;1086;104225;-75
2023/05/03 01:02:41;;;;;;;9.17;4.00;;;;;;;10.70;48.77;101318.92;124987;1086;104290;-75
2023/05/03 01:05:10;;;;;;;10.80;4.10;;;;;;;10.68;48.76;101317.08;124988;1086;104293;-75
2023/05/03 01:08:02;;;;;;;7.83;4.40;;;;;;;10.66;48.78;101317.00;124934;1086;104363;-75
2023/05/03 01:10:40;;;;;;;10.80;4.50;;;;;;;10.63;48.74;101311.59;124931;1086;104316;-75
2023/05/03 01:13:14;;;;;;;9.57;4.40;;;;;;;10.59;49.27;101307.02;124898;1086;105701;-75
2023/05/03 01:15:52;;;;;;;;;;;;;;;10.54;49.67;101311.15;124962;1086;104343;-76
2023/05/03 01:18:27;;;;;;;8.53;4.20;;;;;;;10.49;49.05;101303.05;124910;1086;104290;-75
2023/05/03 01:20:58;;;;;;;12.07;4.70;;;;;;;10.47;49.17;101301.17;125038;1086;104633;-75
2023/05/03 01:23:41;;;;;;;13.45;4.55;;;;;;;10.44;49.59;101304.56;124889;1086;104293;-75
2023/05/03 01:26:20;;;;;;;9.57;4.53;;;;;;;10.40;49.94;101302.59;124874;1086;104385;-76
2023/05/03 01:28:49;;;;;;;10.10;4.37;;;;;;;10.36;49.49;101305.89;124975;1086;104366;-74
2023/05/03 01:31:25;;;;;;;7.93;4.53;;;;;;;10.32;50.15;101304.81;125089;1086;104226;-74
2023/05/03 01:34:04;;;;;;;9.53;4.60;;;;;;;10.29;49.83;101288.03;125205;1086;104229;-74
2023/05/03 01:36:36;;;;;;;12.75;5.10;;;;;;;10.24;50.29;101296.56;125174;1086;104178;-75
2023/05/03 01:39:08;;;;;;;10.67;5.07;;;;;;;10.23;50.44;101299.11;125066;1086;104357;-75
2023/05/03 01:41:39;;;;;;;11.60;4.80;;;;;;;10.18;50.39;101295.36;125058;1086;104229;-78
2023/05/03 01:44:09;;;;;;;9.60;4.63;;;;;;;10.16;50.03;101296.98;124957;1086;104225;-75
2023/05/03 01:46:43;;;;;;;16.05;5.00;;;;;;;10.14;50.06;101296.02;125029;1086;104244;-75
2023/05/03 01:49:15;;;;;;;9.07;4.60;;;;;;;10.12;50.18;101295.05;124768;1086;104229;-76
2023/05/03 01:51:44;;;;;;;10.27;4.93;;;;;;;10.11;50.61;101298.48;124578;1086;104420;-76
2023/05/03 01:54:13;;;;;;;10.20;4.95;;;;;;;10.11;50.29;101307.24;124892;1086;104287;-74
2023/05/03 01:56:43;;;;;;;12.77;5.07;;;;;;;10.08;50.65;101300.14;124867;1086;104302;-75
2023/05/03 01:59:11;;;;;;;11.00;5.13;;;;;;;10.05;50.54;101302.61;124924;1086;104229;-75
2023/05/03 02:01:40;;;;;;;12.43;5.23;;;;;;;10.03;50.41;101304.23;124912;1086;104351;-75
2023/05/03 02:04:10;;;;;;;9.23;4.97;;;;;;;10.02;50.59;101301.53;124859;1086;104430;-75
2023/05/03 02:06:38;;;;;;;11.47;5.63;;;;;;;10.00;51.16;101303.19;124929;1086;104232;-75
2023/05/03 02:09:07;;;;;;;11.77;5.17;;;;;;;9.97;51.05;101303.95;124882;1086;104369;-76
2023/05/03 02:11:36;;;;;;;12.50;5.03;;;;;;;9.98;50.61;101299.60;124974;1085;104270;-76
2023/05/03 02:14:04;;;;;;;14.27;5.20;;;;;;;9.95;50.75;101295.09;124696;1086;104369;-76
2023/05/03 02:16:33;;;;;;;10.90;5.17;;;;;;;9.94;51.13;101306.42;124697;1086;104468;-76
2023/05/03 02:19:02;;;;;;;12.57;5.00;;;;;;;9.93;50.83;101304.61;124893;1086;104699;-74
2023/05/03 02:21:31;;;;;;;12.70;4.73;;;;;;;9.91;51.45;101301.02;124898;1086;104279;-74
2023/05/03 02:23:59;;;;;;;12.80;5.87;;;;;;;9.92;50.98;101302.80;124961;1086;104367;-74
2023/05/03 02:26:28;;;;;;;15.30;5.33;;;;;;;9.92;51.48;101305.42;124951;1086;104319;-74
2023/05/03 02:28:56;;;;;;;10.33;5.20;;;;;;;9.90;51.09;101317.56;124906;1086;104370;-74
2023/05/03 02:31:25;;;;;;;14.43;5.27;;;;;;;9.88;51.36;101319.22;124610;1086;104346;-74
2023/05/03 02:33:55;;;;;;;12.87;5.47;;;;;;;9.87;51.90;101322.64;124844;1086;104350;-74
2023/05/03 02:36:24;;;;;;;15.27;5.67;;;;;;;9.83;51.25;101318.05;124953;1086;104353;-75
2023/05/03 02:38:53;;;;;;;9.97;5.07;;;;;;;9.79;51.47;101322.25;124870;1086;104353;-74
2023/05/03 02:41:22;;;;;;;20.90;6.47;;;;;;;9.77;52.04;101315.11;124906;1086;104271;-77
2023/05/03 02:43:51;;;;;;;25.87;6.53;;;;;;;9.73;51.54;101319.30;124957;1086;104292;-76
2023/05/03 02:46:19;;;;;;;52.63;10.37;;;;;;;9.69;51.94;101314.71;124897;1086;104370;-74
2023/05/03 02:48:48;;;;;;;46.37;9.60;;;;;;;9.67;51.96;101319.88;124696;1086;104356;-75
2023/05/03 02:51:17;;;;;;;78.13;13.00;;;;;;;9.66;52.10;101318.09;124870;1086;104360;-75
2023/05/03 02:53:45;;;;;;;39.57;10.17;;;;;;;9.65;51.85;101320.63;124839;1086;104234;-74
2023/05/03 02:56:14;;;;;;;32.00;7.95;;;;;;;9.64;52.37;101321.44;124848;1086;105449;-73
2023/05/03 02:58:42;;;;;;;22.13;5.63;;;;;;;9.64;52.34;101321.44;124895;1086;104296;-75
2023/05/03 03:01:12;;;;;;;18.47;6.13;;;;;;;9.60;52.56;101325.63;125094;1086;104337;-74
2023/05/03 03:03:41;;;;;;;14.53;6.10;;;;;;;9.59;52.49;101321.20;124726;1086;104329;-75
2023/05/03 03:06:10;;;;;;;17.57;6.30;;;;;;;9.57;52.29;101314.98;124808;1085;104382;-75
2023/05/03 03:08:38;;;;;;;30.87;7.50;;;;;;;9.58;52.31;101326.36;124940;1086;104389;-74
2023/05/03 03:11:07;;;;;;;16.70;6.10;;;;;;;9.55;52.86;101321.84;125004;1085;104382;-74
2023/05/03 03:13:38;;;;;;;15.77;5.80;;;;;;;9.54;52.92;101322.69;124723;1086;104334;-75
2023/05/03 03:16:07;;;;;;;13.63;6.13;;;;;;;9.54;53.04;101320.95;124962;1086;104346;-74
2023/05/03 03:18:37;;;;;;;14.00;5.67;;;;;;;9.52;53.15;101324.30;124821;1086;104350;-75
2023/05/03 03:21:08;;;;;;;13.47;5.57;;;;;;;9.50;52.57;101318.09;124726;1086;104273;-75
2023/05/03 03:23:37;;;;;;;15.20;6.00;;;;;;;9.49;52.96;101321.52;124837;1086;104343;-74
2023/05/03 03:26:06;;;;;;;13.73;5.80;;;;;;;9.49;53.78;101324.14;125216;1086;104216;-75
2023/05/03 03:28:35;;;;;;;13.63;5.93;;;;;;;9.51;53.65;101322.52;124912;1086;104303;-74
2023/05/03 03:31:04;;;;;;;16.10;6.43;;;;;;;9.56;53.00;101325.39;124765;1086;104507;-74
2023/05/03 03:33:33;;;;;;;14.67;6.13;;;;;;;9.62;53.68;101323.09;125004;1086;104242;-75
2023/05/03 03:36:06;;;;;;;16.37;6.00;;;;;;;9.68;53.68;101323.41;125038;1086;104299;-75
2023/05/03 03:38:36;;;;;;;12.75;5.70;;;;;;;9.74;53.36;101331.59;125143;1086;104293;-75
2023/05/03 03:41:05;;;;;;;15.60;5.90;;;;;;;9.80;53.19;101336.23;124809;1086;104335;-76
2023/05/03 03:43:34;;;;;;;13.33;5.50;;;;;;;9.83;53.04;101339.02;125046;1086;104311;-75
2023/05/03 03:46:03;;;;;;;14.00;5.93;;;;;;;9.86;53.06;101339.18;125040;1086;104396;-75
2023/05/03 03:48:32;;;;;;;11.93;6.20;;;;;;;9.89;53.71;101342.89;125092;1086;104286;-76
2023/05/03 03:51:01;;;;;;;17.20;5.87;;;;;;;9.94;53.23;101343.13;125325;1086;104234;-74
2023/05/03 03:53:35;;;;;;;13.77;5.90;;;;;;;10.00;53.48;101342.52;125287;1086;104339;-75
2023/05/03 03:56:04;;;;;;;18.07;6.50;;;;;;;10.04;53.55;101349.73;125075;1086;104270;-74
2023/05/03 03:58:33;;;;;;;19.70;6.30;;;;;;;10.10;53.50;101339.56;125029;1086;104267;-73
2023/05/03 04:01:02;;;;;;;15.20;5.63;;;;;;;10.19;53.52;101341.73;125118;1086;104318;-75
2023/05/03 04:03:31;;;;;;;24.07;7.20;;;;;;;10.24;53.22;101338.53;125131;1086;104338;-73
2023/05/03 04:06:01;;;;;;;16.37;6.30;;;;;;;10.31;53.70;101337.10;125211;1086;104162;-74
2023/05/03 04:08:29;;;;;;;12.00;6.07;;;;;;;10.39;53.28;101348.94;125246;1086;104434;-74
2023/05/03 04:10:58;;;;;;;16.60;6.30;;;;;;;10.43;53.29;101350.87;125236;1086;104225;-73
2023/05/03 04:13:27;;;;;;;12.93;6.53;;;;;;;10.48;53.54;101344.96;125098;1086;104296;-73
2023/05/03 04:15:56;;;;;;;17.10;6.20;;;;;;;10.51;53.85;101345.12;125400;1086;104613;-73
2023/05/03 04:18:25;;;;;;;16.85;6.45;;;;;;;10.52;53.30;101347.81;125173;1086;104248;-74
2023/05/03 04:20:54;;;;;;;14.40;6.37;;;;;;;10.56;53.56;101354.99;125040;1085;104501;-75
2023/05/03 04:23:23;;;;;;;17.73;6.53;;;;;;;10.58;53.87;101348.12;125141;1086;104360;-74
2023/05/03 04:25:52;;;;;;;15.10;6.77;;;;;;;10.64;53.06;101351.86;125466;1086;104366;-73
2023/05/03 04:28:21;;;;;;;20.37;7.13;;;;;;;10.71;53.37;101339.11;125026;1086;104233;-73
2023/05/03 04:30:51;;;;;;;21.47;6.70;;;;;;;10.79;53.75;101347.36;125319;1086;104287;-73
2023/05/03 04:33:23;;;;;;;17.80;6.73;;;;;;;10.83;53.62;101349.31;125072;1086;104391;-73
2023/05/03 04:35:53;;;;;;;16.33;6.53;;;;;;;10.88;53.78;101349.54;125261;1086;104228;-72
2023/05/03 04:38:22;;;;;;;18.17;6.97;;;;;;;10.97;53.51;101349.98;125010;1086;104300;-73
2023/05/03 04:40:51;;;;;;;14.80;7.00;;;;;;;11.07;53.26;101360.08;125107;1086;104465;-75
2023/05/03 04:43:20;;;;;;;16.70;6.07;;;;;;;11.17;53.58;101360.51;125135;1086;104481;-75
2023/05/03 04:45:53;;;;;;;14.70;6.03;;;;;;;11.22;53.25;101358.98;125241;1086;104357;-74
2023/05/03 04:48:25;;;;;;;16.80;6.07;;;;;;;11.27;53.14;101352.24;125203;1086;104287;-73
2023/05/03 04:50:54;;;;;;;13.23;6.30;;;;;;;11.32;52.96;101358.60;125217;1086;104431;-76
2023/05/03 04:53:24;;;;;;;13.80;5.97;;;;;;;11.36;53.00;101350.05;125591;1086;104152;-80
2023/05/03 04:56:01;;;;;;;17.30;6.13;;;;;;;11.44;53.10;101358.28;125582;1086;104362;-74
2023/05/03 04:58:31;;;;;;;14.33;6.27;;;;;;;11.51;52.95;101356.00;125726;1086;102418;-78
2023/05/03 05:01:01;;;;;;;13.23;6.17;;;;;;;11.57;53.04;101360.62;125674;1087;104233;-78
2023/05/03 05:03:31;;;;;;;17.53;6.43;;;;;;;11.64;52.98;101356.52;125711;1086;104200;-74
2023/05/03 05:06:01;;;;;;;16.53;6.30;;;;;;;11.73;52.93;101369.20;125672;1086;104171;-76
2023/05/03 05:08:31;;;;;;;14.40;6.13;;;;;;;11.83;52.96;101364.42;125837;1086;102137;-74
2023/05/03 05:11:02;;;;;;;15.93;5.80;;;;;;;11.96;52.90;101371.14;125769;1086;104321;-72
2023/05/03 05:13:32;;;;;;;19.27;5.80;;;;;;;12.09;52.79;101367.34;125846;1086;104209;-73
2023/05/03 05:16:00;;;;;;;11.53;4.90;;;;;;;12.22;52.41;101371.39;125714;1086;104231;-73
2023/05/03 05:18:31;;;;;;;9.30;4.50;;;;;;;12.32;52.60;101365.67;125654;1086;104260;-73
2023/05/03 05:21:00;;;;;;;9.25;4.30;;;;;;;12.43;52.58;101374.02;125793;1086;104200;-77
2023/05/03 05:23:29;;;;;;;11.87;4.83;;;;;;;12.50;52.10;101372.56;126225;1086;104337;-73
2023/05/03 05:25:59;;;;;;;10.90;4.27;;;;;;;12.57;52.09;101377.23;126507;1086;104210;-72
2023/05/03 05:28:29;;;;;;;8.97;4.03;;;;;;;12.63;52.15;101371.33;126210;1086;104232;-71
2023/05/03 05:30:58;;;;;;;9.10;4.23;;;;;;;12.66;52.02;101374.09;125966;1086;104222;-77
2023/05/03 05:33:27;;;;;;;11.87;4.27;;;;;;;12.72;52.36;101375.23;125985;1086;102473;-79
2023/05/03 05:35:55;;;;;;;15.73;4.70;;;;;;;12.80;52.04;101374.66;126378;1086;104181;-78
2023/05/03 05:38:24;;;;;;;10.87;4.47;;;;;;;12.88;51.97;101379.37;126489;1086;104283;-75
2023/05/03 05:40:54;;;;;;;13.20;4.63;;;;;;;12.99;52.08;101378.92;126276;1089;104239;-79
2023/05/03 05:43:24;;;;;;;9.93;4.83;;;;;;;13.09;52.33;101379.35;126415;1086;104369;-79
2023/05/03 05:45:56;;;;;;;10.50;4.70;;;;;;;13.22;52.53;101372.81;126335;1086;104335;-77
2023/05/03 05:48:30;;;;;;;12.37;4.37;;;;;;;13.33;52.29;101378.53;126355;1086;104220;-73
2023/05/03 05:51:03;;;;;;;13.57;4.33;;;;;;;13.44;51.89;101384.22;126639;1086;102275;-77
2023/05/03 05:53:32;;;;;;;9.77;4.30;;;;;;;13.56;52.64;101387.33;126500;1086;104178;-76
2023/05/03 05:56:02;;;;;;;15.17;4.70;;;;;;;13.63;52.29;101384.09;126665;1086;104273;-78
2023/05/03 05:58:32;;;;;;;9.47;4.13;;;;;;;13.75;52.19;101388.02;126869;1086;102701;-74
2023/05/03 06:01:02;;;;;;;10.53;4.50;;;;;;;13.84;51.95;101389.24;126296;1086;104158;-77
2023/05/03 06:03:32;;;;;;;11.10;4.30;;;;;;;13.94;51.73;101389.58;127072;1086;102549;-73
2023/05/03 06:06:10;;;;;;;9.77;4.53;;;;;;;14.03;51.58;101393.44;126538;1086;102313;-75
2023/05/03 06:08:39;;;;;;;8.73;4.20;;;;;;;14.12;51.64;101392.87;126447;1086;102167;-72
2023/05/03 06:11:16;;;;;;;8.87;4.10;;;;;;;14.26;52.24;101397.72;126386;1086;104309;-76
2023/05/03 06:13:49;;;;;;;10.87;4.60;;;;;;;14.33;51.77;101403.27;126475;1086;104255;-72
2023/05/03 06:16:19;;;;;;;11.43;4.13;;;;;;;14.41;51.75;101400.01;126353;1086;102219;-73
2023/05/03 06:18:48;;;;;;;7.83;4.17;;;;;;;14.54;50.97;101399.59;126798;1086;102265;-75
2023/05/03 06:21:19;;;;;;;10.17;4.03;;;;;;;14.68;50.29;101392.17;126638;1086;104684;-79
2023/05/03 06:23:51;;;;;;;14.60;5.07;;;;;;;14.82;51.10;101401.44;126589;1086;102602;-76
2023/05/03 06:26:26;;;;;;;10.43;4.73;;;;;;;14.92;50.70;101398.23;126640;1089;102040;-74
2023/05/03 06:29:00;;;;;;;8.87;3.70;;;;;;;15.03;49.91;101395.05;127076;1086;104190;-75
2023/05/03 06:31:47;;;;;;;10.07;3.73;;;;;;;15.15;50.30;101389.27;127022;1086;104213;-78
2023/05/03 06:34:41;;;;;;;5.93;3.47;;;;;;;15.25;49.62;101391.31;126720;1086;104229;-78
2023/05/03 06:37:27;;;;;;;9.20;4.10;;;;;;;15.36;50.71;101395.18;126579;1086;104149;-79
2023/05/03 06:40:21;;;;;;;9.13;3.60;;;;;;;15.49;49.44;101392.91;126895;1086;104340;-80
2023/05/03 06:42:57;;;;;;;8.77;3.40;;;;;;;15.56;49.61;101390.48;126692;1086;104153;-76
2023/05/03 06:46:04;;;;;;;11.33;3.30;;;;;;;15.74;49.09;101391.91;126652;1086;104258;-79
2023/05/03 06:48:35;;;;;;;5.53;2.17;;;;;;;15.86;45.33;101381.67;126706;1086;102234;-78
2023/05/03 06:51:08;;;;;;;7.03;2.60;;;;;;;16.01;45.64;101390.91;126488;1086;104441;-78
2023/05/03 06:53:45;;;;;;;4.50;2.50;;;;;;;16.14;46.12;101386.00;126563;1086;102720;-79
2023/05/03 06:56:21;;;;;;;5.83;3.53;;;;;;;16.31;44.30;101393.48;126506;1086;102152;-74
2023/05/03 06:59:08;;;;;;;6.47;3.37;;;;;;;16.51;43.64;101391.35;126390;1086;104146;-78
2023/05/03 07:01:41;;;;;;;4.33;2.60;;;;;;;16.65;42.60;101381.98;126521;1087;104346;-77
2023/05/03 07:04:19;;;;;;;4.97;2.30;;;;;;;16.76;40.95;101384.91;126570;1086;104309;-76
2023/05/03 07:06:50;;;;;;;4.27;2.30;;;;;;;16.92;42.16;101390.61;126992;1086;104108;-80
2023/05/03 07:09:50;;;;;;;;;;;;;;;;;;;;;
2023/05/03 07:12:26;;;;;;;4.80;2.37;;;;;;;17.21;40.19;101388.64;126914;1086;104162;-78
2023/05/03 07:15:04;;;;;;;4.80;2.47;;;;;;;17.37;37.27;101374.88;126495;1086;104293;-77
2023/05/03 07:17:42;;;;;;;6.33;2.70;;;;;;;17.52;40.12;101384.91;126685;1086;104349;-75
2023/05/03 07:20:25;;;;;;;4.05;2.35;;;;;;;17.67;39.31;101388.73;126474;1086;104152;-77
2023/05/03 07:23:03;;;;;;;4.07;2.33;;;;;;;17.85;38.05;101382.92;126266;1086;104225;-75
2023/05/03 07:25:50;;;;;;;5.63;2.50;;;;;;;17.92;35.82;101375.14;126481;1086;102330;-77
2023/05/03 07:28:20;;;;;;;8.50;2.60;;;;;;;18.06;38.01;101385.11;126593;1086;104184;-75
2023/05/03 07:30:52;;;;;;;;;;;;;;;18.16;36.54;101383.55;126577;1086;104158;-76
2023/05/03 07:33:24;;;;;;;7.40;2.60;;;;;;;18.31;38.27;101382.06;126787;1086;102513;-78
2023/05/03 07:35:54;;;;;;;4.73;2.80;;;;;;;18.48;38.65;101384.09;126837;1085;103053;-79
2023/05/03 07:38:34;;;;;;;11.53;2.70;;;;;;;18.61;38.65;101375.48;126550;1086;104113;-78
2023/05/03 07:41:17;;;;;;;5.13;2.67;;;;;;;18.75;37.58;101380.14;126822;1086;102256;-80
2023/05/03 07:43:54;;;;;;;7.53;3.23;;;;;;;18.86;37.48;101378.57;126643;1087;104362;-75
2023/05/03 07:46:24;;;;;;;7.00;3.10;;;;;;;19.04;37.60;101377.94;126475;1086;104329;-78
2023/05/03 07:48:57;;;;;;;8.13;2.90;;;;;;;19.07;36.05;101369.13;126903;1086;102053;-77
2023/05/03 07:51:27;;;;;;;7.60;2.80;;;;;;;19.08;37.02;101376.23;126666;1086;104078;-79
2023/05/03 07:54:01;;;;;;;5.40;2.63;;;;;;;19.11;36.64;101374.51;126823;1086;104158;-76
2023/05/03 07:56:31;;;;;;;5.77;2.50;;;;;;;19.24;35.93;101370.25;126818;1086;104976;-77
2023/05/03 07:59:01;;;;;;;3.90;2.50;;;;;;;19.37;35.30;101372.22;128115;1086;102354;-79
2023/05/03 08:01:30;;;;;;;6.40;2.90;;;;;;;19.54;35.41;101375.10;126919;1086;102321;-75
2023/05/03 08:04:03;;;;;;;4.50;2.50;;;;;;;19.62;33.89;101390.25;126740;1086;104206;-79
2023/05/03 08:06:32;;;;;;;8.33;2.53;;;;;;;19.68;33.07;101379.69;126557;1086;102033;-76
2023/05/03 08:09:03;;;;;;;7.53;2.73;;;;;;;19.75;34.14;101376.23;126155;1086;104296;-76
2023/05/03 08:11:32;;;;;;;4.83;2.60;;;;;;;19.79;33.57;101379.84;126471;1086;104637;-74
2023/05/03 08:14:01;;;;;;;4.57;2.80;;;;;;;19.86;33.50;101368.41;126439;1086;102376;-75
2023/05/03 08:16:30;;;;;;;7.93;2.70;;;;;;;19.95;33.30;101372.95;126228;1086;104287;-78
2023/05/03 08:19:01;;;;;;;5.77;2.70;;;;;;;20.02;34.71;101375.67;126537;1086;104234;-76
2023/05/03 08:21:32;;;;;;;7.67;2.77;;;;;;;20.09;34.06;101373.98;126338;1089;103810;-76
2023/05/03 08:24:04;;;;;;;5.23;2.80;;;;;;;20.14;33.76;101374.03;126685;1086;102250;-75
2023/05/03 08:26:34;;;;;;;4.55;2.40;;;;;;;20.11;32.95;101378.43;127028;1086;104235;-78
2023/05/03 08:29:07;;;;;;;4.13;2.50;;;;;;;20.20;33.29;101372.31;126462;1086;101869;-74
2023/05/03 08:31:36;;;;;;;12.10;3.08;;;;;;;20.25;33.54;101375.02;127100;1086;104290;-78
2023/05/03 08:34:06;;;;;;;4.40;2.80;;;;;;;20.39;33.52;101377.83;126782;1086;104181;-75
2023/05/03 08:36:35;;;;;;;9.03;2.97;;;;;;;20.50;33.47;101359.26;126717;1086;102510;-74
2023/05/03 08:39:05;;;;;;;8.20;2.70;;;;;;;20.58;33.53;101366.42;126202;1089;104448;-76
2023/05/03 08:41:35;;;;;;;6.07;2.53;;;;;;;20.67;32.81;101354.10;128479;1085;101741;-78
2023/05/03 08:44:07;;;;;;;4.60;2.60;;;;;;;20.74;32.57;101363.91;128089;1086;101781;-76
2023/05/03 08:46:37;;;;;;;5.45;2.50;;;;;;;20.74;32.32;101364.83;128179;1086;102528;-78
2023/05/03 08:49:16;;;;;;;7.17;2.70;;;;;;;20.79;32.17;101356.86;126742;1085;102447;-77
2023/05/03 08:51:49;;;;;;;7.43;2.70;;;;;;;20.85;31.42;101345.32;128133;1086;102192;-77
2023/05/03 08:54:20;;;;;;;4.37;2.70;;;;;;;20.97;30.41;101350.73;127803;1085;104280;-75
2023/05/03 08:56:56;;;;;;;3.17;2.60;;;;;;;21.10;31.62;101349.95;126618;1085;104169;-76
2023/05/03 08:59:27;;;;;;;5.87;2.33;;;;;;;21.16;31.62;101344.64;126417;1086;102088;-73
2023/05/03 09:01:56;;;;;;;8.97;2.80;;;;;;;21.22;31.23;101334.87;126453;1086;104405;-75
2023/05/03 09:04:33;;;;;;;5.43;2.13;;;;;;;21.21;30.53;101338.41;127012;1085;104190;-78
2023/05/03 09:07:14;;;;;;;6.87;2.00;;;;;;;21.22;30.29;101340.21;127054;1085;104062;-77
2023/05/03 09:09:48;;;;;;;4.87;2.00;;;;;;;21.23;30.01;101350.90;127139;1086;102085;-78
2023/05/03 09:12:37;;;;;;;3.10;2.50;;;;;;;21.26;29.91;101337.56;126956;1086;104166;-79
2023/05/03 09:15:20;;;;;;;9.37;2.77;;;;;;;21.29;30.02;101332.24;126956;1086;104172;-78
2023/05/03 09:18:07;;;;;;;5.40;2.63;;;;;;;21.37;29.85;101335.83;126857;1085;104229;-77
2023/05/03 09:23:55;;;;;;;7.53;2.57;;;;;;;21.44;29.62;101334.10;126542;1086;104159;-78
2023/05/03 09:27:42;;;;;;;6.03;2.67;;;;;;;21.51;29.72;101329.70;126850;1086;104248;-77
2023/05/03 09:31:07;;;;;;;4.72;2.40;;;;;;;21.52;29.65;101323.48;127054;1086;102100;-76
2023/05/03 09:34:47;;;;;;;5.03;2.40;;;;;;;21.73;29.46;101339.55;128182;1086;101813;-80
2023/05/03 09:37:49;;;;;;;5.37;2.50;;;;;;;21.79;29.45;101332.47;128117;1086;101395;-80
2023/05/03 09:40:53;;;;;;;5.83;2.50;;;;;;;21.76;29.65;101328.00;128401;1085;101732;-79
2023/05/03 09:43:30;;;;;;;2.73;2.20;;;;;;;21.73;27.72;101322.64;128127;1086;102681;-82
2023/05/03 09:46:15;;;;;;;4.60;2.60;;;;;;;21.81;29.05;101320.88;128451;1085;102032;-78
2023/05/03 09:48:44;;;;;;;4.80;2.20;;;;;;;21.84;29.27;101325.34;126945;1086;102188;-77
2023/05/03 09:51:15;;;;;;;5.00;2.90;;;;;;;21.89;29.25;101319.14;126985;1086;104155;-79
2023/05/03 09:53:45;;;;;;;7.63;2.90;;;;;;;21.85;28.69;101306.65;127070;1086;102525;-72
2023/05/03 09:56:15;;;;;;;4.43;2.43;;;;;;;21.85;28.69;101309.32;126653;1089;103724;-79
2023/05/03 09:58:51;;;;;;;5.10;2.53;;;;;;;21.95;29.00;101304.87;126748;1086;103650;-78
2023/05/03 10:02:03;;;;;;;8.23;2.80;;;;;;;21.98;29.28;101309.34;127298;1086;102756;-78
2023/05/03 10:04:42;;;;;;;5.17;2.93;;;;;;;21.98;28.87;101312.02;127142;1086;104328;-80
2023/05/03 10:07:27;;;;;;;5.67;3.00;;;;;;;22.06;29.34;101302.22;127102;1086;104235;-80
2023/05/03 10:10:08;;;;;;;5.47;2.47;;;;;;;22.05;29.11;101304.02;127156;1085;104215;-78
2023/05/03 10:13:06;;;;;;;;;;;;;;;;;;;;;
2023/05/03 10:15:41;;;;;;;6.43;2.60;;;;;;;22.19;29.33;101304.02;127250;1085;102457;-78
2023/05/03 10:18:32;;;;;;;6.07;2.67;;;;;;;22.21;28.39;101302.23;127305;1086;104162;-76
2023/05/03 10:21:06;;;;;;;;;;;;;;;22.17;27.33;101303.11;127125;1086;104228;-79
2023/05/03 10:23:34;;;;;;;5.70;2.30;;;;;;;22.15;28.45;101306.69;127059;1086;102708;-77
2023/05/03 10:26:16;;;;;;;8.63;3.00;;;;;;;22.10;28.11;101304.02;127185;1086;104280;-79
2023/05/03 10:28:48;;;;;;;6.53;2.40;;;;;;;22.06;27.96;101297.78;127197;1086;102247;-80
2023/05/03 10:31:55;;;;;;;4.13;2.50;;;;;;;22.08;28.07;101296.00;127117;1087;102153;-81
2023/05/03 10:34:43;;;;;;;8.33;2.70;;;;;;;22.14;28.00;101302.23;127074;1086;102354;-77
2023/05/03 10:37:27;;;;;;;4.05;2.27;;;;;;;22.14;28.53;101296.88;127116;1086;104245;-82
2023/05/03 10:40:08;;;;;;;5.77;2.37;;;;;;;22.14;28.66;101289.74;127710;1086;104251;-80
2023/05/03 10:42:45;;;;;;;9.77;2.80;;;;;;;22.15;28.94;101298.67;126881;1086;104323;-79
2023/05/03 10:45:32;;;;;;;3.43;2.50;;;;;;;22.21;29.10;101294.22;126732;1086;104149;-78
2023/05/03 10:48:21;;;;;;;4.47;2.33;;;;;;;22.25;29.02;101296.01;126755;1086;104210;-81
2023/05/03 10:50:53;;;;;;;4.33;2.50;;;;;;;22.19;29.42;101301.34;126905;1086;104169;-80
2023/05/03 10:53:42;;;;;;;5.67;2.60;;;;;;;22.25;29.40;101301.36;127153;1086;104190;-81
2023/05/03 10:56:12;;;;;;;4.53;2.60;;;;;;;22.26;28.75;101300.44;127005;1086;102255;-77
2023/05/03 10:58:44;;;;;;;3.13;2.33;;;;;;;22.34;28.73;101299.59;127048;1086;104194;-79
2023/05/03 11:01:19;;;;;;;5.13;2.33;;;;;;;22.36;28.82;101296.05;127227;1086;104177;-81
2023/05/03 11:04:01;;;;;;;7.57;2.40;;;;;;;22.42;29.03;101292.45;127123;1086;104183;-79
2023/05/03 11:06:36;;;;;;;4.40;2.40;;;;;;;22.41;28.23;101293.37;126848;1086;107400;-81
2023/05/03 11:09:13;;;;;;;4.42;2.52;;;;;;;22.40;28.44;101291.58;127227;1086;102600;-81
2023/05/03 11:11:45;;;;;;;8.77;2.70;;;;;;;22.36;28.75;101292.45;126982;1086;102478;-80
2023/05/03 11:14:13;;;;;;;4.93;2.50;;;;;;;22.36;28.73;101289.78;126589;1086;104314;-77
2023/05/03 11:16:49;;;;;;;8.03;2.70;;;;;;;22.38;29.08;101288.02;126636;1086;118907;-78
2023/05/03 11:19:21;;;;;;;5.40;2.53;;;;;;;22.36;29.12;101282.67;126801;1086;104228;-81
2023/05/03 11:21:52;;;;;;;3.47;2.23;;;;;;;22.31;28.88;101273.74;127134;1086;104149;-80
2023/05/03 11:24:22;;;;;;;5.97;2.63;;;;;;;22.36;28.89;101277.33;126843;1086;102374;-79
2023/05/03 11:26:57;;;;;;;9.90;2.87;;;;;;;22.38;29.49;101270.19;126807;1086;104231;-84
2023/05/03 11:29:32;;;;;;;8.50;2.80;;;;;;;22.43;29.78;101263.04;126586;1086;102449;-78
2023/05/03 11:32:11;;;;;;;4.53;2.80;;;;;;;22.46;29.63;101250.58;128143;1086;102069;-79
2023/05/03 11:34:54;;;;;;;4.37;2.50;;;;;;;22.41;29.63;101262.16;128116;1086;101825;-78
2023/05/03 11:37:25;;;;;;;6.20;2.90;;;;;;;22.39;29.09;101249.67;128103;1086;111343;-78
2023/05/03 11:39:54;;;;;;;5.27;2.50;;;;;;;22.32;29.22;101247.92;128436;1086;101768;-79
2023/05/03 11:42:27;;;;;;;3.33;2.43;;;;;;;22.36;29.52;101244.33;128425;1085;102324;-79